sensor_id;sensor_type;location;lat;lon;timestamp;temperature;humidity
32187;DHT22;18686;53.084;8.872;2023-03-23T00:01:30;10.30;99.90
32187;DHT22;18686;53.084;8.872;2023-03-23T00:04:03;10.30;99.90
32187;DHT22;18686;53.084;8.872;2023-03-23T00:06:31;10.20;99.90
32187;DHT22;18686;53.084;8.872;2023-03-23T00:09:01;10.20;99.90
32187;DHT22;18686;53.084;8.872;2023-03-23T00:11:30;10.30;99.90
32187;DHT22;18686;53.084;8.872;2023-03-23T00:13:59;10.20;99.90
32187;DHT22;18686;53.084;8.872;2023-03-23T00:16:30;10.20;99.90
32187;DHT22;18686;53.084;8.872;2023-03-23T00:18:59;10.20;99.90
32187;DHT22;18686;53.084;8.872;2023-03-23T00:21:30;10.20;99.90
32187;DHT22;18686;53.084;8.872;2023-03-23T00:24:02;10.20;99.90
32187;DHT22;18686;53.084;8.872;2023-03-23T00:26:30;10.20;99.90
32187;DHT22;18686;53.084;8.872;2023-03-23T00:29:00;10.20;99.90
32187;DHT22;18686;53.084;8.872;2023-03-23T00:31:30;10.20;99.90
32187;DHT22;18686;53.084;8.872;2023-03-23T00:33:59;10.20;99.90
32187;DHT22;18686;53.084;8.872;2023-03-23T00:36:30;10.20;99.90
32187;DHT22;18686;53.084;8.872;2023-03-23T00:38:58;10.20;99.90
32187;DHT22;18686;53.084;8.872;2023-03-23T00:41:26;10.20;99.90
32187;DHT22;18686;53.084;8.872;2023-03-23T00:43:55;10.20;99.90
32187;DHT22;18686;53.084;8.872;2023-03-23T00:46:22;10.20;99.90
32187;DHT22;18686;53.084;8.872;2023-03-23T00:48:51;10.20;99.90
32187;DHT22;18686;53.084;8.872;2023-03-23T00:51:19;10.20;99.90
32187;DHT22;18686;53.084;8.872;2023-03-23T00:53:47;10.30;99.90
32187;DHT22;18686;53.084;8.872;2023-03-23T00:56:14;10.30;99.90
32187;DHT22;18686;53.084;8.872;2023-03-23T00:58:41;10.20;99.90
32187;DHT22;18686;53.084;8.872;2023-03-23T01:01:09;10.30;99.90
32187;DHT22;18686;53.084;8.872;2023-03-23T01:03:36;10.30;99.90
32187;DHT22;18686;53.084;8.872;2023-03-23T01:06:06;10.30;99.90
32187;DHT22;18686;53.084;8.872;2023-03-23T01:08:42;10.30;99.90
32187;DHT22;18686;53.084;8.872;2023-03-23T01:11:13;10.30;99.90
32187;DHT22;18686;53.084;8.872;2023-03-23T01:13:40;10.30;99.90
32187;DHT22;18686;53.084;8.872;2023-03-23T01:16:08;10.30;99.90
32187;DHT22;18686;53.084;8.872;2023-03-23T01:18:38;10.30;99.90
32187;DHT22;18686;53.084;8.872;2023-03-23T01:21:08;10.30;99.90
32187;DHT22;18686;53.084;8.872;2023-03-23T01:23:37;10.30;99.90
32187;DHT22;18686;53.084;8.872;2023-03-23T01:26:05;10.30;99.90
32187;DHT22;18686;53.084;8.872;2023-03-23T01:28:33;10.30;99.90
32187;DHT22;18686;53.084;8.872;2023-03-23T01:31:02;10.30;99.90
32187;DHT22;18686;53.084;8.872;2023-03-23T01:33:30;10.40;99.90
32187;DHT22;18686;53.084;8.872;2023-03-23T01:35:58;10.40;99.90
32187;DHT22;18686;53.084;8.872;2023-03-23T01:38:30;10.40;99.90
32187;DHT22;18686;53.084;8.872;2023-03-23T01:40:57;10.40;99.90
32187;DHT22;18686;53.084;8.872;2023-03-23T01:43:25;10.30;99.90
32187;DHT22;18686;53.084;8.872;2023-03-23T01:45:52;10.30;99.90
32187;DHT22;18686;53.084;8.872;2023-03-23T01:48:24;10.30;99.90
32187;DHT22;18686;53.084;8.872;2023-03-23T01:50:56;10.30;99.90
32187;DHT22;18686;53.084;8.872;2023-03-23T01:53:28;10.30;99.90
32187;DHT22;18686;53.084;8.872;2023-03-23T01:55:59;10.30;99.90
32187;DHT22;18686;53.084;8.872;2023-03-23T01:58:29;10.30;99.90
32187;DHT22;18686;53.084;8.872;2023-03-23T02:01:00;10.30;99.90
32187;DHT22;18686;53.084;8.872;2023-03-23T02:03:29;10.30;99.90
32187;DHT22;18686;53.084;8.872;2023-03-23T02:05:58;10.30;99.90
32187;DHT22;18686;53.084;8.872;2023-03-23T02:08:35;10.30;99.90
32187;DHT22;18686;53.084;8.872;2023-03-23T02:11:12;10.30;99.90
32187;DHT22;18686;53.084;8.872;2023-03-23T02:13:41;10.30;99.90
32187;DHT22;18686;53.084;8.872;2023-03-23T02:16:15;10.30;99.90
32187;DHT22;18686;53.084;8.872;2023-03-23T02:18:57;10.30;99.90
32187;DHT22;18686;53.084;8.872;2023-03-23T02:22:02;10.40;99.90
32187;DHT22;18686;53.084;8.872;2023-03-23T02:24:53;10.40;99.90
32187;DHT22;18686;53.084;8.872;2023-03-23T02:27:55;10.40;99.90
32187;DHT22;18686;53.084;8.872;2023-03-23T02:30:46;10.40;99.90
32187;DHT22;18686;53.084;8.872;2023-03-23T02:33:36;10.40;99.90
32187;DHT22;18686;53.084;8.872;2023-03-23T02:36:13;10.40;99.90
32187;DHT22;18686;53.084;8.872;2023-03-23T02:38:46;10.30;99.90
32187;DHT22;18686;53.084;8.872;2023-03-23T02:41:20;10.40;99.90
32187;DHT22;18686;53.084;8.872;2023-03-23T02:43:49;10.40;99.90
32187;DHT22;18686;53.084;8.872;2023-03-23T02:46:17;10.40;99.90
32187;DHT22;18686;53.084;8.872;2023-03-23T02:48:48;10.40;99.90
32187;DHT22;18686;53.084;8.872;2023-03-23T02:51:18;10.30;99.90
32187;DHT22;18686;53.084;8.872;2023-03-23T02:53:47;10.40;99.90
32187;DHT22;18686;53.084;8.872;2023-03-23T02:56:19;10.40;99.90
32187;DHT22;18686;53.084;8.872;2023-03-23T02:58:48;10.30;99.90
32187;DHT22;18686;53.084;8.872;2023-03-23T03:04:19;10.30;99.90
32187;DHT22;18686;53.084;8.872;2023-03-23T03:09:44;10.30;99.90
32187;DHT22;18686;53.084;8.872;2023-03-23T03:12:21;10.20;99.90
32187;DHT22;18686;53.084;8.872;2023-03-23T03:14:53;10.20;99.90
32187;DHT22;18686;53.084;8.872;2023-03-23T03:17:24;10.20;99.90
32187;DHT22;18686;53.084;8.872;2023-03-23T03:19:56;10.20;99.90
32187;DHT22;18686;53.084;8.872;2023-03-23T03:22:26;10.20;99.90
32187;DHT22;18686;53.084;8.872;2023-03-23T03:24:57;10.20;99.90
32187;DHT22;18686;53.084;8.872;2023-03-23T03:27:26;10.20;99.90
32187;DHT22;18686;53.084;8.872;2023-03-23T03:30:09;10.20;99.90
32187;DHT22;18686;53.084;8.872;2023-03-23T03:32:44;10.20;99.90
32187;DHT22;18686;53.084;8.872;2023-03-23T03:35:18;10.20;99.90
32187;DHT22;18686;53.084;8.872;2023-03-23T03:37:45;10.20;99.90
32187;DHT22;18686;53.084;8.872;2023-03-23T03:40:16;10.20;99.90
32187;DHT22;18686;53.084;8.872;2023-03-23T03:42:45;10.20;99.90
32187;DHT22;18686;53.084;8.872;2023-03-23T03:45:15;10.20;99.90
32187;DHT22;18686;53.084;8.872;2023-03-23T03:47:43;10.20;99.90
32187;DHT22;18686;53.084;8.872;2023-03-23T03:50:10;10.20;99.90
32187;DHT22;18686;53.084;8.872;2023-03-23T03:52:40;10.20;99.90
32187;DHT22;18686;53.084;8.872;2023-03-23T03:55:08;10.20;99.90
32187;DHT22;18686;53.084;8.872;2023-03-23T03:57:39;10.20;99.90
32187;DHT22;18686;53.084;8.872;2023-03-23T04:00:24;10.20;99.90
32187;DHT22;18686;53.084;8.872;2023-03-23T04:02:52;10.20;99.90
32187;DHT22;18686;53.084;8.872;2023-03-23T04:05:34;10.10;99.90
32187;DHT22;18686;53.084;8.872;2023-03-23T04:08:04;10.20;99.90
32187;DHT22;18686;53.084;8.872;2023-03-23T04:10:31;10.20;99.90
32187;DHT22;18686;53.084;8.872;2023-03-23T04:13:00;10.20;99.90
32187;DHT22;18686;53.084;8.872;2023-03-23T04:15:43;10.20;99.90
32187;DHT22;18686;53.084;8.872;2023-03-23T04:18:12;10.20;99.90
32187;DHT22;18686;53.084;8.872;2023-03-23T04:20:41;10.20;99.90
32187;DHT22;18686;53.084;8.872;2023-03-23T04:23:12;10.20;99.90
32187;DHT22;18686;53.084;8.872;2023-03-23T04:25:40;10.20;99.90
32187;DHT22;18686;53.084;8.872;2023-03-23T04:28:08;10.20;99.90
32187;DHT22;18686;53.084;8.872;2023-03-23T04:30:45;10.20;99.90
32187;DHT22;18686;53.084;8.872;2023-03-23T04:33:15;10.20;99.90
32187;DHT22;18686;53.084;8.872;2023-03-23T04:35:46;10.10;99.90
32187;DHT22;18686;53.084;8.872;2023-03-23T04:38:35;10.20;99.90
32187;DHT22;18686;53.084;8.872;2023-03-23T04:41:11;10.20;99.90
32187;DHT22;18686;53.084;8.872;2023-03-23T04:43:56;10.20;99.90
32187;DHT22;18686;53.084;8.872;2023-03-23T04:46:36;10.20;99.90
32187;DHT22;18686;53.084;8.872;2023-03-23T04:49:11;10.20;99.90
32187;DHT22;18686;53.084;8.872;2023-03-23T04:51:40;10.20;99.90
32187;DHT22;18686;53.084;8.872;2023-03-23T04:54:20;10.20;99.90
32187;DHT22;18686;53.084;8.872;2023-03-23T04:56:52;10.20;99.90
32187;DHT22;18686;53.084;8.872;2023-03-23T04:59:20;10.20;99.90
32187;DHT22;18686;53.084;8.872;2023-03-23T05:02:15;10.20;99.90
32187;DHT22;18686;53.084;8.872;2023-03-23T05:04:45;10.20;99.90
32187;DHT22;18686;53.084;8.872;2023-03-23T05:07:19;10.20;99.90
32187;DHT22;18686;53.084;8.872;2023-03-23T05:09:50;10.20;99.90
32187;DHT22;18686;53.084;8.872;2023-03-23T05:12:21;10.20;99.90
32187;DHT22;18686;53.084;8.872;2023-03-23T05:14:59;10.20;99.90
32187;DHT22;18686;53.084;8.872;2023-03-23T05:17:29;10.20;99.90
32187;DHT22;18686;53.084;8.872;2023-03-23T05:20:01;10.20;99.90
32187;DHT22;18686;53.084;8.872;2023-03-23T05:22:42;10.30;99.90
32187;DHT22;18686;53.084;8.872;2023-03-23T05:25:13;10.30;99.90
32187;DHT22;18686;53.084;8.872;2023-03-23T05:27:46;10.30;99.90
32187;DHT22;18686;53.084;8.872;2023-03-23T05:30:39;10.30;99.90
32187;DHT22;18686;53.084;8.872;2023-03-23T05:33:08;10.40;99.90
32187;DHT22;18686;53.084;8.872;2023-03-23T05:35:45;10.40;99.90
32187;DHT22;18686;53.084;8.872;2023-03-23T05:38:17;10.40;99.90
32187;DHT22;18686;53.084;8.872;2023-03-23T05:40:46;10.40;99.90
32187;DHT22;18686;53.084;8.872;2023-03-23T05:43:17;10.40;99.90
32187;DHT22;18686;53.084;8.872;2023-03-23T05:46:03;10.50;99.90
32187;DHT22;18686;53.084;8.872;2023-03-23T05:48:31;10.50;99.90
32187;DHT22;18686;53.084;8.872;2023-03-23T05:50:59;10.50;99.90
32187;DHT22;18686;53.084;8.872;2023-03-23T05:53:28;10.50;99.90
32187;DHT22;18686;53.084;8.872;2023-03-23T05:55:59;10.50;99.90
32187;DHT22;18686;53.084;8.872;2023-03-23T05:58:59;10.60;99.90
32187;DHT22;18686;53.084;8.872;2023-03-23T06:01:29;10.50;99.90
32187;DHT22;18686;53.084;8.872;2023-03-23T06:03:58;10.50;99.90
32187;DHT22;18686;53.084;8.872;2023-03-23T06:06:35;10.50;99.90
32187;DHT22;18686;53.084;8.872;2023-03-23T06:09:06;10.40;99.90
32187;DHT22;18686;53.084;8.872;2023-03-23T06:11:57;10.40;99.90
32187;DHT22;18686;53.084;8.872;2023-03-23T06:14:32;10.50;99.90
32187;DHT22;18686;53.084;8.872;2023-03-23T06:17:00;10.40;99.90
32187;DHT22;18686;53.084;8.872;2023-03-23T06:19:27;10.40;99.90
32187;DHT22;18686;53.084;8.872;2023-03-23T06:22:05;10.40;99.90
32187;DHT22;18686;53.084;8.872;2023-03-23T06:25:09;10.40;99.90
32187;DHT22;18686;53.084;8.872;2023-03-23T06:27:42;10.50;99.90
32187;DHT22;18686;53.084;8.872;2023-03-23T06:30:12;10.60;99.90
32187;DHT22;18686;53.084;8.872;2023-03-23T06:32:41;10.60;99.90
32187;DHT22;18686;53.084;8.872;2023-03-23T06:35:11;10.70;99.90
32187;DHT22;18686;53.084;8.872;2023-03-23T06:37:57;10.70;99.90
32187;DHT22;18686;53.084;8.872;2023-03-23T06:40:35;10.80;99.90
32187;DHT22;18686;53.084;8.872;2023-03-23T06:43:05;10.80;99.90
32187;DHT22;18686;53.084;8.872;2023-03-23T06:45:50;10.90;99.90
32187;DHT22;18686;53.084;8.872;2023-03-23T06:48:30;10.90;99.90
32187;DHT22;18686;53.084;8.872;2023-03-23T06:50:59;11.00;99.90
32187;DHT22;18686;53.084;8.872;2023-03-23T06:53:28;11.10;99.90
32187;DHT22;18686;53.084;8.872;2023-03-23T06:55:57;11.10;99.90
32187;DHT22;18686;53.084;8.872;2023-03-23T06:58:27;11.20;99.90
32187;DHT22;18686;53.084;8.872;2023-03-23T07:00:55;11.20;99.90
32187;DHT22;18686;53.084;8.872;2023-03-23T07:03:31;11.20;99.90
32187;DHT22;18686;53.084;8.872;2023-03-23T07:06:03;11.20;99.90
32187;DHT22;18686;53.084;8.872;2023-03-23T07:08:35;11.20;99.90
32187;DHT22;18686;53.084;8.872;2023-03-23T07:11:05;11.30;99.90
32187;DHT22;18686;53.084;8.872;2023-03-23T07:13:33;11.40;99.90
32187;DHT22;18686;53.084;8.872;2023-03-23T07:16:05;11.60;99.90
32187;DHT22;18686;53.084;8.872;2023-03-23T07:18:33;11.80;99.90
32187;DHT22;18686;53.084;8.872;2023-03-23T07:21:04;11.90;99.90
32187;DHT22;18686;53.084;8.872;2023-03-23T07:23:31;11.90;99.90
32187;DHT22;18686;53.084;8.872;2023-03-23T07:26:25;11.90;99.90
32187;DHT22;18686;53.084;8.872;2023-03-23T07:28:56;11.80;99.90
32187;DHT22;18686;53.084;8.872;2023-03-23T07:31:32;11.60;99.90
32187;DHT22;18686;53.084;8.872;2023-03-23T07:34:00;11.50;99.90
32187;DHT22;18686;53.084;8.872;2023-03-23T07:36:56;11.30;99.90
32187;DHT22;18686;53.084;8.872;2023-03-23T07:39:27;11.30;99.90
32187;DHT22;18686;53.084;8.872;2023-03-23T07:41:57;11.30;99.90
32187;DHT22;18686;53.084;8.872;2023-03-23T07:44:49;11.20;99.90
32187;DHT22;18686;53.084;8.872;2023-03-23T07:47:16;11.20;99.90
32187;DHT22;18686;53.084;8.872;2023-03-23T07:49:47;11.20;99.90
32187;DHT22;18686;53.084;8.872;2023-03-23T07:52:21;11.20;99.90
32187;DHT22;18686;53.084;8.872;2023-03-23T07:54:50;11.20;99.90
32187;DHT22;18686;53.084;8.872;2023-03-23T07:57:24;11.20;99.90
32187;DHT22;18686;53.084;8.872;2023-03-23T07:59:54;11.20;99.90
32187;DHT22;18686;53.084;8.872;2023-03-23T08:02:22;11.10;99.90
32187;DHT22;18686;53.084;8.872;2023-03-23T08:05:16;11.10;99.90
32187;DHT22;18686;53.084;8.872;2023-03-23T08:08:05;11.10;99.90
32187;DHT22;18686;53.084;8.872;2023-03-23T08:10:51;11.10;99.90
32187;DHT22;18686;53.084;8.872;2023-03-23T08:13:41;11.10;99.90
32187;DHT22;18686;53.084;8.872;2023-03-23T08:16:28;11.00;99.90
32187;DHT22;18686;53.084;8.872;2023-03-23T08:19:21;10.90;99.90
32187;DHT22;18686;53.084;8.872;2023-03-23T08:22:20;10.80;99.90
32187;DHT22;18686;53.084;8.872;2023-03-23T08:25:14;10.70;99.90
32187;DHT22;18686;53.084;8.872;2023-03-23T08:28:04;10.70;99.90
32187;DHT22;18686;53.084;8.872;2023-03-23T08:31:10;10.60;99.90
32187;DHT22;18686;53.084;8.872;2023-03-23T08:33:57;10.60;99.90
32187;DHT22;18686;53.084;8.872;2023-03-23T08:36:41;10.60;99.90
32187;DHT22;18686;53.084;8.872;2023-03-23T08:39:42;10.50;99.90
32187;DHT22;18686;53.084;8.872;2023-03-23T08:42:25;10.50;99.90
32187;DHT22;18686;53.084;8.872;2023-03-23T08:45:12;10.40;99.90
32187;DHT22;18686;53.084;8.872;2023-03-23T08:47:52;10.50;99.90
32187;DHT22;18686;53.084;8.872;2023-03-23T08:50:42;10.50;99.90
32187;DHT22;18686;53.084;8.872;2023-03-23T08:53:09;10.60;99.90
32187;DHT22;18686;53.084;8.872;2023-03-23T08:55:40;10.70;99.90
32187;DHT22;18686;53.084;8.872;2023-03-23T08:58:22;10.90;99.90
32187;DHT22;18686;53.084;8.872;2023-03-23T09:01:22;11.10;99.90
32187;DHT22;18686;53.084;8.872;2023-03-23T09:04:01;11.20;99.90
32187;DHT22;18686;53.084;8.872;2023-03-23T09:07:10;11.20;99.90
32187;DHT22;18686;53.084;8.872;2023-03-23T09:09:38;11.20;99.90
32187;DHT22;18686;53.084;8.872;2023-03-23T09:12:06;11.20;99.90
32187;DHT22;18686;53.084;8.872;2023-03-23T09:14:34;11.30;99.90
32187;DHT22;18686;53.084;8.872;2023-03-23T09:17:01;11.30;99.90
32187;DHT22;18686;53.084;8.872;2023-03-23T09:19:29;11.30;99.90
32187;DHT22;18686;53.084;8.872;2023-03-23T09:21:57;11.30;99.90
32187;DHT22;18686;53.084;8.872;2023-03-23T09:24:25;11.20;99.90
32187;DHT22;18686;53.084;8.872;2023-03-23T09:26:52;11.20;99.90
32187;DHT22;18686;53.084;8.872;2023-03-23T09:29:20;11.20;99.90
32187;DHT22;18686;53.084;8.872;2023-03-23T09:31:47;11.20;99.90
32187;DHT22;18686;53.084;8.872;2023-03-23T09:34:15;11.30;99.90
32187;DHT22;18686;53.084;8.872;2023-03-23T09:36:42;11.30;99.90
32187;DHT22;18686;53.084;8.872;2023-03-23T09:39:10;11.20;99.90
32187;DHT22;18686;53.084;8.872;2023-03-23T09:41:54;11.20;99.90
32187;DHT22;18686;53.084;8.872;2023-03-23T09:44:30;11.20;99.90
32187;DHT22;18686;53.084;8.872;2023-03-23T09:47:05;11.20;99.90
32187;DHT22;18686;53.084;8.872;2023-03-23T09:49:36;11.10;99.90
32187;DHT22;18686;53.084;8.872;2023-03-23T09:52:10;11.00;99.90
32187;DHT22;18686;53.084;8.872;2023-03-23T09:54:40;11.00;99.90
32187;DHT22;18686;53.084;8.872;2023-03-23T09:57:16;11.00;99.90
32187;DHT22;18686;53.084;8.872;2023-03-23T09:59:51;11.10;99.90
32187;DHT22;18686;53.084;8.872;2023-03-23T10:02:24;11.10;99.90
32187;DHT22;18686;53.084;8.872;2023-03-23T10:05:12;11.20;99.90
32187;DHT22;18686;53.084;8.872;2023-03-23T10:07:42;11.50;99.90
32187;DHT22;18686;53.084;8.872;2023-03-23T10:10:13;11.80;99.90
32187;DHT22;18686;53.084;8.872;2023-03-23T10:12:45;12.00;99.90
32187;DHT22;18686;53.084;8.872;2023-03-23T10:15:17;12.10;99.90
32187;DHT22;18686;53.084;8.872;2023-03-23T10:17:51;12.20;99.90
32187;DHT22;18686;53.084;8.872;2023-03-23T10:20:32;12.20;99.90
32187;DHT22;18686;53.084;8.872;2023-03-23T10:23:20;12.30;99.90
32187;DHT22;18686;53.084;8.872;2023-03-23T10:25:53;12.50;99.90
32187;DHT22;18686;53.084;8.872;2023-03-23T10:28:35;12.60;99.90
32187;DHT22;18686;53.084;8.872;2023-03-23T10:31:03;12.50;99.90
32187;DHT22;18686;53.084;8.872;2023-03-23T10:33:39;12.50;99.90
32187;DHT22;18686;53.084;8.872;2023-03-23T10:36:12;12.40;99.90
32187;DHT22;18686;53.084;8.872;2023-03-23T10:38:44;12.40;99.90
32187;DHT22;18686;53.084;8.872;2023-03-23T10:41:14;12.30;99.90
32187;DHT22;18686;53.084;8.872;2023-03-23T10:43:45;12.20;99.90
32187;DHT22;18686;53.084;8.872;2023-03-23T10:46:22;12.30;99.90
32187;DHT22;18686;53.084;8.872;2023-03-23T10:48:53;12.50;99.90
32187;DHT22;18686;53.084;8.872;2023-03-23T10:51:25;12.40;99.90
32187;DHT22;18686;53.084;8.872;2023-03-23T10:53:57;12.40;99.90
32187;DHT22;18686;53.084;8.872;2023-03-23T10:56:26;12.30;99.90
32187;DHT22;18686;53.084;8.872;2023-03-23T10:58:55;12.40;99.90
32187;DHT22;18686;53.084;8.872;2023-03-23T11:01:30;12.60;99.90
32187;DHT22;18686;53.084;8.872;2023-03-23T11:03:58;12.80;99.90
32187;DHT22;18686;53.084;8.872;2023-03-23T11:06:31;13.10;99.90
32187;DHT22;18686;53.084;8.872;2023-03-23T11:09:03;13.10;99.90
32187;DHT22;18686;53.084;8.872;2023-03-23T11:11:32;12.90;99.90
32187;DHT22;18686;53.084;8.872;2023-03-23T11:14:15;12.80;99.90
32187;DHT22;18686;53.084;8.872;2023-03-23T11:16:49;12.80;99.90
32187;DHT22;18686;53.084;8.872;2023-03-23T11:19:23;12.80;99.90
32187;DHT22;18686;53.084;8.872;2023-03-23T11:21:53;12.90;99.90
32187;DHT22;18686;53.084;8.872;2023-03-23T11:24:22;12.80;99.90
32187;DHT22;18686;53.084;8.872;2023-03-23T11:26:50;12.80;99.90
32187;DHT22;18686;53.084;8.872;2023-03-23T11:29:21;12.60;99.90
32187;DHT22;18686;53.084;8.872;2023-03-23T11:31:51;12.80;99.90
32187;DHT22;18686;53.084;8.872;2023-03-23T11:34:20;12.70;99.90
32187;DHT22;18686;53.084;8.872;2023-03-23T11:36:50;12.50;99.90
32187;DHT22;18686;53.084;8.872;2023-03-23T11:39:21;12.40;99.90
32187;DHT22;18686;53.084;8.872;2023-03-23T11:41:49;12.30;99.90
32187;DHT22;18686;53.084;8.872;2023-03-23T11:44:16;12.40;99.90
32187;DHT22;18686;53.084;8.872;2023-03-23T11:46:53;12.40;99.90
32187;DHT22;18686;53.084;8.872;2023-03-23T11:49:32;13.30;99.90
32187;DHT22;18686;53.084;8.872;2023-03-23T11:52:08;14.20;99.90
32187;DHT22;18686;53.084;8.872;2023-03-23T11:54:40;15.30;99.90
32187;DHT22;18686;53.084;8.872;2023-03-23T11:57:12;17.10;99.90
32187;DHT22;18686;53.084;8.872;2023-03-23T11:59:39;19.00;99.90
32187;DHT22;18686;53.084;8.872;2023-03-23T12:02:24;19.80;99.90
32187;DHT22;18686;53.084;8.872;2023-03-23T12:05:05;19.50;99.90
32187;DHT22;18686;53.084;8.872;2023-03-23T12:07:45;18.60;99.90
32187;DHT22;18686;53.084;8.872;2023-03-23T12:10:23;18.00;99.90
32187;DHT22;18686;53.084;8.872;2023-03-23T12:13:02;19.00;99.90
32187;DHT22;18686;53.084;8.872;2023-03-23T12:15:40;20.30;99.90
32187;DHT22;18686;53.084;8.872;2023-03-23T12:18:18;21.60;99.90
32187;DHT22;18686;53.084;8.872;2023-03-23T12:20:59;21.80;98.10
32187;DHT22;18686;53.084;8.872;2023-03-23T12:23:33;20.90;93.80
32187;DHT22;18686;53.084;8.872;2023-03-23T12:26:24;19.90;97.30
32187;DHT22;18686;53.084;8.872;2023-03-23T12:29:13;19.10;99.90
32187;DHT22;18686;53.084;8.872;2023-03-23T12:31:53;18.60;99.90
32187;DHT22;18686;53.084;8.872;2023-03-23T12:34:31;18.20;97.40
32187;DHT22;18686;53.084;8.872;2023-03-23T12:37:18;18.10;99.90
32187;DHT22;18686;53.084;8.872;2023-03-23T12:40:05;18.80;99.90
32187;DHT22;18686;53.084;8.872;2023-03-23T12:42:43;19.20;95.20
32187;DHT22;18686;53.084;8.872;2023-03-23T12:45:23;19.20;92.90
32187;DHT22;18686;53.084;8.872;2023-03-23T12:47:57;18.90;91.00
32187;DHT22;18686;53.084;8.872;2023-03-23T12:50:30;19.10;91.40
32187;DHT22;18686;53.084;8.872;2023-03-23T12:52:59;19.30;88.50
32187;DHT22;18686;53.084;8.872;2023-03-23T12:55:34;20.20;90.00
32187;DHT22;18686;53.084;8.872;2023-03-23T12:58:05;21.30;75.60
32187;DHT22;18686;53.084;8.872;2023-03-23T13:00:49;22.40;70.90
32187;DHT22;18686;53.084;8.872;2023-03-23T13:03:24;22.50;66.50
32187;DHT22;18686;53.084;8.872;2023-03-23T13:06:03;22.70;64.70
32187;DHT22;18686;53.084;8.872;2023-03-23T13:08:34;23.00;68.70
32187;DHT22;18686;53.084;8.872;2023-03-23T13:11:04;23.70;65.40
32187;DHT22;18686;53.084;8.872;2023-03-23T13:13:46;24.30;57.20
32187;DHT22;18686;53.084;8.872;2023-03-23T13:16:23;25.30;56.30
32187;DHT22;18686;53.084;8.872;2023-03-23T13:19:02;26.10;53.10
32187;DHT22;18686;53.084;8.872;2023-03-23T13:21:38;27.20;47.80
32187;DHT22;18686;53.084;8.872;2023-03-23T13:24:12;28.10;46.00
32187;DHT22;18686;53.084;8.872;2023-03-23T13:26:41;29.10;44.90
32187;DHT22;18686;53.084;8.872;2023-03-23T13:29:13;30.00;43.20
32187;DHT22;18686;53.084;8.872;2023-03-23T13:31:42;29.90;41.50
32187;DHT22;18686;53.084;8.872;2023-03-23T13:34:18;29.60;41.80
32187;DHT22;18686;53.084;8.872;2023-03-23T13:36:54;28.10;42.10
32187;DHT22;18686;53.084;8.872;2023-03-23T13:39:25;26.10;44.90
32187;DHT22;18686;53.084;8.872;2023-03-23T13:42:02;24.50;47.60
32187;DHT22;18686;53.084;8.872;2023-03-23T13:44:42;22.90;57.40
32187;DHT22;18686;53.084;8.872;2023-03-23T13:47:26;21.10;62.20
32187;DHT22;18686;53.084;8.872;2023-03-23T13:49:56;19.20;86.50
32187;DHT22;18686;53.084;8.872;2023-03-23T13:52:37;17.20;99.90
32187;DHT22;18686;53.084;8.872;2023-03-23T13:55:27;15.60;99.90
32187;DHT22;18686;53.084;8.872;2023-03-23T13:57:57;14.20;99.90
32187;DHT22;18686;53.084;8.872;2023-03-23T14:00:34;13.20;99.90
32187;DHT22;18686;53.084;8.872;2023-03-23T14:03:12;12.30;99.90
32187;DHT22;18686;53.084;8.872;2023-03-23T14:05:42;11.60;99.90
32187;DHT22;18686;53.084;8.872;2023-03-23T14:08:37;11.20;99.90
32187;DHT22;18686;53.084;8.872;2023-03-23T14:11:13;10.90;99.90
32187;DHT22;18686;53.084;8.872;2023-03-23T14:13:58;10.60;99.90
32187;DHT22;18686;53.084;8.872;2023-03-23T14:16:32;10.20;99.90
32187;DHT22;18686;53.084;8.872;2023-03-23T14:19:03;10.00;99.90
32187;DHT22;18686;53.084;8.872;2023-03-23T14:21:34;9.90;99.90
32187;DHT22;18686;53.084;8.872;2023-03-23T14:24:03;9.90;99.90
32187;DHT22;18686;53.084;8.872;2023-03-23T14:26:34;9.90;99.90
32187;DHT22;18686;53.084;8.872;2023-03-23T14:29:03;10.00;99.90
32187;DHT22;18686;53.084;8.872;2023-03-23T14:31:32;10.10;99.90
32187;DHT22;18686;53.084;8.872;2023-03-23T14:34:03;10.40;99.90
32187;DHT22;18686;53.084;8.872;2023-03-23T14:36:33;10.60;99.90
32187;DHT22;18686;53.084;8.872;2023-03-23T14:39:06;10.80;99.90
32187;DHT22;18686;53.084;8.872;2023-03-23T14:41:35;10.90;99.90
32187;DHT22;18686;53.084;8.872;2023-03-23T14:44:17;11.00;99.90
32187;DHT22;18686;53.084;8.872;2023-03-23T14:46:45;11.00;99.90
32187;DHT22;18686;53.084;8.872;2023-03-23T14:49:15;11.10;99.90
32187;DHT22;18686;53.084;8.872;2023-03-23T14:51:48;11.20;99.90
32187;DHT22;18686;53.084;8.872;2023-03-23T14:54:21;11.30;99.90
32187;DHT22;18686;53.084;8.872;2023-03-23T14:56:50;11.60;99.90
32187;DHT22;18686;53.084;8.872;2023-03-23T14:59:22;11.70;99.90
32187;DHT22;18686;53.084;8.872;2023-03-23T15:01:50;11.90;99.90
32187;DHT22;18686;53.084;8.872;2023-03-23T15:04:20;12.10;99.90
32187;DHT22;18686;53.084;8.872;2023-03-23T15:06:50;12.40;99.90
32187;DHT22;18686;53.084;8.872;2023-03-23T15:09:21;12.50;99.90
32187;DHT22;18686;53.084;8.872;2023-03-23T15:11:55;12.70;99.90
32187;DHT22;18686;53.084;8.872;2023-03-23T15:14:27;12.70;99.90
32187;DHT22;18686;53.084;8.872;2023-03-23T15:16:57;12.60;99.90
32187;DHT22;18686;53.084;8.872;2023-03-23T15:19:28;12.50;99.90
32187;DHT22;18686;53.084;8.872;2023-03-23T15:21:57;12.50;99.90
32187;DHT22;18686;53.084;8.872;2023-03-23T15:24:32;12.40;99.90
32187;DHT22;18686;53.084;8.872;2023-03-23T15:27:23;12.20;99.90
32187;DHT22;18686;53.084;8.872;2023-03-23T15:29:54;12.00;99.90
32187;DHT22;18686;53.084;8.872;2023-03-23T15:32:25;11.90;99.90
32187;DHT22;18686;53.084;8.872;2023-03-23T15:34:54;11.80;99.90
32187;DHT22;18686;53.084;8.872;2023-03-23T15:37:26;11.70;99.90
32187;DHT22;18686;53.084;8.872;2023-03-23T15:39:54;11.60;99.90
32187;DHT22;18686;53.084;8.872;2023-03-23T15:42:27;11.60;99.90
32187;DHT22;18686;53.084;8.872;2023-03-23T15:45:16;11.60;99.90
32187;DHT22;18686;53.084;8.872;2023-03-23T15:47:48;11.60;99.90
32187;DHT22;18686;53.084;8.872;2023-03-23T15:50:17;11.50;99.90
32187;DHT22;18686;53.084;8.872;2023-03-23T15:52:46;11.50;99.90
32187;DHT22;18686;53.084;8.872;2023-03-23T15:55:23;11.50;99.90
32187;DHT22;18686;53.084;8.872;2023-03-23T15:57:51;11.50;99.90
32187;DHT22;18686;53.084;8.872;2023-03-23T16:00:23;11.50;99.90
32187;DHT22;18686;53.084;8.872;2023-03-23T16:02:54;11.50;99.90
32187;DHT22;18686;53.084;8.872;2023-03-23T16:05:24;11.40;99.90
32187;DHT22;18686;53.084;8.872;2023-03-23T16:07:54;11.50;99.90
32187;DHT22;18686;53.084;8.872;2023-03-23T16:10:23;11.50;99.90
32187;DHT22;18686;53.084;8.872;2023-03-23T16:12:52;11.50;99.90
32187;DHT22;18686;53.084;8.872;2023-03-23T16:15:22;11.40;99.90
32187;DHT22;18686;53.084;8.872;2023-03-23T16:17:50;11.50;99.90
32187;DHT22;18686;53.084;8.872;2023-03-23T16:20:21;11.50;99.90